sensor_id;sensor_type;location;lat;lon;timestamp;P1;durP1;ratioP1;P2;durP2;ratioP2
21301;SDS011;10810;48.270;9.996;2023-09-19T00:01:34;3.80;;;1.77;;
21301;SDS011;10810;48.270;9.996;2023-09-19T00:04:09;5.13;;;2.23;;
21301;SDS011;10810;48.270;9.996;2023-09-19T00:06:44;4.10;;;1.70;;
21301;SDS011;10810;48.270;9.996;2023-09-19T00:09:12;5.27;;;1.83;;
21301;SDS011;10810;48.270;9.996;2023-09-19T00:11:51;3.20;;;1.80;;
21301;SDS011;10810;48.270;9.996;2023-09-19T00:14:20;4.87;;;1.90;;
21301;SDS011;10810;48.270;9.996;2023-09-19T00:16:51;6.37;;;2.00;;
21301;SDS011;10810;48.270;9.996;2023-09-19T00:19:19;4.17;;;1.73;;
21301;SDS011;10810;48.270;9.996;2023-09-19T00:21:50;5.83;;;2.00;;
21301;SDS011;10810;48.270;9.996;2023-09-19T00:24:23;5.30;;;1.87;;
21301;SDS011;10810;48.270;9.996;2023-09-19T00:26:52;3.57;;;1.83;;
21301;SDS011;10810;48.270;9.996;2023-09-19T00:29:22;6.27;;;2.00;;
21301;SDS011;10810;48.270;9.996;2023-09-19T00:31:56;3.70;;;1.90;;
21301;SDS011;10810;48.270;9.996;2023-09-19T00:34:37;2.80;;;1.43;;
21301;SDS011;10810;48.270;9.996;2023-09-19T00:37:07;6.40;;;1.87;;
21301;SDS011;10810;48.270;9.996;2023-09-19T00:39:41;3.13;;;1.60;;
21301;SDS011;10810;48.270;9.996;2023-09-19T00:42:20;3.30;;;1.70;;
21301;SDS011;10810;48.270;9.996;2023-09-19T00:44:54;3.50;;;1.87;;
21301;SDS011;10810;48.270;9.996;2023-09-19T00:47:27;3.97;;;1.83;;
21301;SDS011;10810;48.270;9.996;2023-09-19T00:49:57;3.93;;;1.80;;
21301;SDS011;10810;48.270;9.996;2023-09-19T00:52:27;5.03;;;1.90;;
21301;SDS011;10810;48.270;9.996;2023-09-19T00:54:55;4.57;;;1.60;;
21301;SDS011;10810;48.270;9.996;2023-09-19T00:57:27;4.10;;;1.80;;
21301;SDS011;10810;48.270;9.996;2023-09-19T00:59:54;4.13;;;1.70;;
21301;SDS011;10810;48.270;9.996;2023-09-19T01:02:24;4.17;;;1.67;;
21301;SDS011;10810;48.270;9.996;2023-09-19T01:04:54;6.83;;;2.00;;
21301;SDS011;10810;48.270;9.996;2023-09-19T01:07:21;3.77;;;1.67;;
21301;SDS011;10810;48.270;9.996;2023-09-19T01:09:49;3.33;;;1.77;;
21301;SDS011;10810;48.270;9.996;2023-09-19T01:12:20;6.87;;;1.70;;
21301;SDS011;10810;48.270;9.996;2023-09-19T01:14:59;4.07;;;1.67;;
21301;SDS011;10810;48.270;9.996;2023-09-19T01:17:32;5.30;;;2.20;;
21301;SDS011;10810;48.270;9.996;2023-09-19T01:20:17;4.17;;;1.73;;
21301;SDS011;10810;48.270;9.996;2023-09-19T01:22:56;3.40;;;1.77;;
21301;SDS011;10810;48.270;9.996;2023-09-19T01:28:34;5.53;;;1.90;;
21301;SDS011;10810;48.270;9.996;2023-09-19T01:31:13;3.17;;;1.60;;
21301;SDS011;10810;48.270;9.996;2023-09-19T01:36:31;4.97;;;1.90;;
21301;SDS011;10810;48.270;9.996;2023-09-19T01:39:01;3.10;;;1.70;;
21301;SDS011;10810;48.270;9.996;2023-09-19T01:41:41;6.00;;;1.70;;
21301;SDS011;10810;48.270;9.996;2023-09-19T01:44:17;5.37;;;1.70;;
21301;SDS011;10810;48.270;9.996;2023-09-19T01:46:49;4.37;;;1.70;;
21301;SDS011;10810;48.270;9.996;2023-09-19T01:49:21;4.13;;;1.73;;
21301;SDS011;10810;48.270;9.996;2023-09-19T01:51:56;3.33;;;1.70;;
21301;SDS011;10810;48.270;9.996;2023-09-19T01:54:33;5.47;;;1.90;;
21301;SDS011;10810;48.270;9.996;2023-09-19T01:57:07;5.07;;;1.70;;
21301;SDS011;10810;48.270;9.996;2023-09-19T01:59:41;2.67;;;1.57;;
21301;SDS011;10810;48.270;9.996;2023-09-19T02:02:13;3.07;;;1.70;;
21301;SDS011;10810;48.270;9.996;2023-09-19T02:04:41;4.07;;;1.53;;
21301;SDS011;10810;48.270;9.996;2023-09-19T02:07:15;4.80;;;1.53;;
21301;SDS011;10810;48.270;9.996;2023-09-19T02:09:49;2.83;;;1.60;;
21301;SDS011;10810;48.270;9.996;2023-09-19T02:12:18;4.57;;;1.80;;
21301;SDS011;10810;48.270;9.996;2023-09-19T02:14:45;4.47;;;1.67;;
21301;SDS011;10810;48.270;9.996;2023-09-19T02:17:17;3.17;;;1.60;;
21301;SDS011;10810;48.270;9.996;2023-09-19T02:19:44;5.73;;;1.73;;
21301;SDS011;10810;48.270;9.996;2023-09-19T02:22:12;4.07;;;1.77;;
21301;SDS011;10810;48.270;9.996;2023-09-19T02:24:39;2.47;;;1.37;;
21301;SDS011;10810;48.270;9.996;2023-09-19T02:27:06;3.27;;;1.80;;
21301;SDS011;10810;48.270;9.996;2023-09-19T02:29:39;4.70;;;1.70;;
21301;SDS011;10810;48.270;9.996;2023-09-19T02:32:06;4.33;;;1.33;;
21301;SDS011;10810;48.270;9.996;2023-09-19T02:34:37;5.87;;;1.80;;
21301;SDS011;10810;48.270;9.996;2023-09-19T02:37:05;3.83;;;1.60;;
21301;SDS011;10810;48.270;9.996;2023-09-19T02:39:34;4.93;;;2.33;;
21301;SDS011;10810;48.270;9.996;2023-09-19T02:42:01;3.10;;;1.60;;
21301;SDS011;10810;48.270;9.996;2023-09-19T02:44:32;5.60;;;2.30;;
21301;SDS011;10810;48.270;9.996;2023-09-19T02:47:07;4.27;;;1.97;;
21301;SDS011;10810;48.270;9.996;2023-09-19T02:49:38;5.43;;;2.00;;
21301;SDS011;10810;48.270;9.996;2023-09-19T02:52:13;3.27;;;1.53;;
21301;SDS011;10810;48.270;9.996;2023-09-19T02:54:46;3.73;;;1.60;;
21301;SDS011;10810;48.270;9.996;2023-09-19T02:57:17;3.03;;;1.67;;
21301;SDS011;10810;48.270;9.996;2023-09-19T02:59:45;3.33;;;1.73;;
21301;SDS011;10810;48.270;9.996;2023-09-19T03:02:12;4.87;;;1.80;;
21301;SDS011;10810;48.270;9.996;2023-09-19T03:04:43;4.37;;;1.70;;
21301;SDS011;10810;48.270;9.996;2023-09-19T03:07:12;2.90;;;1.50;;
21301;SDS011;10810;48.270;9.996;2023-09-19T03:09:39;6.50;;;1.60;;
21301;SDS011;10810;48.270;9.996;2023-09-19T03:12:10;4.73;;;1.70;;
21301;SDS011;10810;48.270;9.996;2023-09-19T03:14:41;7.70;;;1.70;;
21301;SDS011;10810;48.270;9.996;2023-09-19T03:17:12;4.27;;;1.60;;
21301;SDS011;10810;48.270;9.996;2023-09-19T03:19:39;3.73;;;1.70;;
21301;SDS011;10810;48.270;9.996;2023-09-19T03:22:20;2.57;;;1.50;;
21301;SDS011;10810;48.270;9.996;2023-09-19T03:24:52;2.97;;;1.47;;
21301;SDS011;10810;48.270;9.996;2023-09-19T03:27:27;4.47;;;1.90;;
21301;SDS011;10810;48.270;9.996;2023-09-19T03:29:58;5.27;;;1.90;;
21301;SDS011;10810;48.270;9.996;2023-09-19T03:32:50;4.77;;;1.60;;
21301;SDS011;10810;48.270;9.996;2023-09-19T03:35:19;4.73;;;2.10;;
21301;SDS011;10810;48.270;9.996;2023-09-19T03:37:50;3.70;;;1.77;;
21301;SDS011;10810;48.270;9.996;2023-09-19T03:40:20;4.50;;;1.67;;
21301;SDS011;10810;48.270;9.996;2023-09-19T03:42:53;3.57;;;1.53;;
21301;SDS011;10810;48.270;9.996;2023-09-19T03:45:20;4.77;;;1.90;;
21301;SDS011;10810;48.270;9.996;2023-09-19T03:47:47;3.70;;;1.70;;
21301;SDS011;10810;48.270;9.996;2023-09-19T03:50:15;3.90;;;1.50;;
21301;SDS011;10810;48.270;9.996;2023-09-19T03:52:42;3.83;;;1.60;;
21301;SDS011;10810;48.270;9.996;2023-09-19T03:55:10;3.83;;;1.67;;
21301;SDS011;10810;48.270;9.996;2023-09-19T03:57:38;3.73;;;1.50;;
21301;SDS011;10810;48.270;9.996;2023-09-19T04:00:06;3.20;;;1.50;;
21301;SDS011;10810;48.270;9.996;2023-09-19T04:02:37;3.47;;;1.60;;
21301;SDS011;10810;48.270;9.996;2023-09-19T04:05:05;3.40;;;1.87;;
21301;SDS011;10810;48.270;9.996;2023-09-19T04:07:32;2.53;;;1.37;;
21301;SDS011;10810;48.270;9.996;2023-09-19T04:10:01;3.53;;;1.40;;
21301;SDS011;10810;48.270;9.996;2023-09-19T04:12:29;4.70;;;1.83;;
21301;SDS011;10810;48.270;9.996;2023-09-19T04:14:57;3.27;;;1.50;;
21301;SDS011;10810;48.270;9.996;2023-09-19T04:17:24;6.00;;;1.57;;
21301;SDS011;10810;48.270;9.996;2023-09-19T04:19:51;3.97;;;1.30;;
21301;SDS011;10810;48.270;9.996;2023-09-19T04:22:19;2.30;;;1.37;;
21301;SDS011;10810;48.270;9.996;2023-09-19T04:24:46;3.47;;;1.50;;
21301;SDS011;10810;48.270;9.996;2023-09-19T04:27:13;3.03;;;1.30;;
21301;SDS011;10810;48.270;9.996;2023-09-19T04:29:42;5.27;;;1.60;;
21301;SDS011;10810;48.270;9.996;2023-09-19T04:32:09;3.60;;;1.30;;
21301;SDS011;10810;48.270;9.996;2023-09-19T04:34:38;2.70;;;1.37;;
21301;SDS011;10810;48.270;9.996;2023-09-19T04:37:05;3.57;;;1.23;;
21301;SDS011;10810;48.270;9.996;2023-09-19T04:39:34;1.70;;;1.20;;
21301;SDS011;10810;48.270;9.996;2023-09-19T04:42:01;2.30;;;1.23;;
21301;SDS011;10810;48.270;9.996;2023-09-19T04:44:31;2.30;;;1.13;;
21301;SDS011;10810;48.270;9.996;2023-09-19T04:47:00;2.00;;;1.20;;
21301;SDS011;10810;48.270;9.996;2023-09-19T04:49:27;2.13;;;1.20;;
21301;SDS011;10810;48.270;9.996;2023-09-19T04:51:55;3.80;;;1.40;;
21301;SDS011;10810;48.270;9.996;2023-09-19T04:54:22;2.90;;;1.20;;
21301;SDS011;10810;48.270;9.996;2023-09-19T04:56:49;2.30;;;1.30;;
21301;SDS011;10810;48.270;9.996;2023-09-19T04:59:16;3.17;;;1.30;;
21301;SDS011;10810;48.270;9.996;2023-09-19T05:01:43;1.50;;;1.10;;
21301;SDS011;10810;48.270;9.996;2023-09-19T05:04:13;2.07;;;1.20;;
21301;SDS011;10810;48.270;9.996;2023-09-19T05:06:40;2.73;;;1.20;;
21301;SDS011;10810;48.270;9.996;2023-09-19T05:09:07;2.77;;;1.10;;
21301;SDS011;10810;48.270;9.996;2023-09-19T05:11:35;2.07;;;1.13;;
21301;SDS011;10810;48.270;9.996;2023-09-19T05:14:03;2.53;;;1.30;;
21301;SDS011;10810;48.270;9.996;2023-09-19T05:16:30;2.03;;;1.10;;
21301;SDS011;10810;48.270;9.996;2023-09-19T05:18:58;4.57;;;1.10;;
21301;SDS011;10810;48.270;9.996;2023-09-19T05:21:28;2.00;;;1.00;;
21301;SDS011;10810;48.270;9.996;2023-09-19T05:23:56;2.20;;;1.10;;
21301;SDS011;10810;48.270;9.996;2023-09-19T05:26:23;4.40;;;1.00;;
21301;SDS011;10810;48.270;9.996;2023-09-19T05:28:50;2.10;;;1.10;;
21301;SDS011;10810;48.270;9.996;2023-09-19T05:31:18;2.30;;;1.00;;
21301;SDS011;10810;48.270;9.996;2023-09-19T05:33:45;3.07;;;1.03;;
21301;SDS011;10810;48.270;9.996;2023-09-19T05:36:12;2.03;;;1.20;;
21301;SDS011;10810;48.270;9.996;2023-09-19T05:38:42;3.43;;;1.10;;
21301;SDS011;10810;48.270;9.996;2023-09-19T05:41:09;1.93;;;1.00;;
21301;SDS011;10810;48.270;9.996;2023-09-19T05:43:38;1.60;;;0.90;;
21301;SDS011;10810;48.270;9.996;2023-09-19T05:46:06;2.83;;;1.03;;
21301;SDS011;10810;48.270;9.996;2023-09-19T05:48:33;2.03;;;0.97;;
21301;SDS011;10810;48.270;9.996;2023-09-19T05:51:01;4.27;;;1.60;;
21301;SDS011;10810;48.270;9.996;2023-09-19T05:53:28;1.77;;;1.00;;
21301;SDS011;10810;48.270;9.996;2023-09-19T05:55:56;1.30;;;0.80;;
21301;SDS011;10810;48.270;9.996;2023-09-19T05:58:26;2.43;;;1.00;;
21301;SDS011;10810;48.270;9.996;2023-09-19T06:00:53;1.93;;;0.90;;
21301;SDS011;10810;48.270;9.996;2023-09-19T06:03:21;3.73;;;1.00;;
21301;SDS011;10810;48.270;9.996;2023-09-19T06:05:48;2.20;;;1.10;;
21301;SDS011;10810;48.270;9.996;2023-09-19T06:08:18;2.53;;;1.00;;
21301;SDS011;10810;48.270;9.996;2023-09-19T06:10:45;2.53;;;1.23;;
21301;SDS011;10810;48.270;9.996;2023-09-19T06:13:15;2.87;;;0.93;;
21301;SDS011;10810;48.270;9.996;2023-09-19T06:15:43;3.00;;;1.00;;
21301;SDS011;10810;48.270;9.996;2023-09-19T06:18:11;1.43;;;0.83;;
21301;SDS011;10810;48.270;9.996;2023-09-19T06:20:44;1.70;;;1.00;;
21301;SDS011;10810;48.270;9.996;2023-09-19T06:23:11;2.17;;;1.23;;
21301;SDS011;10810;48.270;9.996;2023-09-19T06:25:42;2.93;;;1.00;;
21301;SDS011;10810;48.270;9.996;2023-09-19T06:28:10;1.60;;;0.90;;
21301;SDS011;10810;48.270;9.996;2023-09-19T06:30:39;2.47;;;0.97;;
21301;SDS011;10810;48.270;9.996;2023-09-19T06:33:07;2.53;;;0.90;;
21301;SDS011;10810;48.270;9.996;2023-09-19T06:35:36;1.83;;;0.90;;
21301;SDS011;10810;48.270;9.996;2023-09-19T06:38:03;2.70;;;1.07;;
21301;SDS011;10810;48.270;9.996;2023-09-19T06:40:30;1.40;;;1.00;;
21301;SDS011;10810;48.270;9.996;2023-09-19T06:42:58;1.67;;;1.00;;
21301;SDS011;10810;48.270;9.996;2023-09-19T06:45:27;2.17;;;0.97;;
21301;SDS011;10810;48.270;9.996;2023-09-19T06:47:56;2.87;;;1.07;;
21301;SDS011;10810;48.270;9.996;2023-09-19T06:50:25;5.67;;;1.23;;
21301;SDS011;10810;48.270;9.996;2023-09-19T06:52:53;2.50;;;1.00;;
21301;SDS011;10810;48.270;9.996;2023-09-19T06:55:22;1.83;;;1.00;;
21301;SDS011;10810;48.270;9.996;2023-09-19T06:57:53;3.47;;;1.10;;
21301;SDS011;10810;48.270;9.996;2023-09-19T07:00:21;5.17;;;1.00;;
21301;SDS011;10810;48.270;9.996;2023-09-19T07:02:56;5.60;;;1.20;;
21301;SDS011;10810;48.270;9.996;2023-09-19T07:05:24;1.10;;;1.00;;
21301;SDS011;10810;48.270;9.996;2023-09-19T07:07:52;2.43;;;1.10;;
21301;SDS011;10810;48.270;9.996;2023-09-19T07:10:19;2.20;;;1.10;;
21301;SDS011;10810;48.270;9.996;2023-09-19T07:12:52;2.07;;;1.00;;
21301;SDS011;10810;48.270;9.996;2023-09-19T07:15:21;3.27;;;1.20;;
21301;SDS011;10810;48.270;9.996;2023-09-19T07:17:50;1.70;;;0.97;;
21301;SDS011;10810;48.270;9.996;2023-09-19T07:20:19;2.30;;;1.17;;
21301;SDS011;10810;48.270;9.996;2023-09-19T07:22:46;2.07;;;1.00;;
21301;SDS011;10810;48.270;9.996;2023-09-19T07:25:15;2.77;;;1.00;;
21301;SDS011;10810;48.270;9.996;2023-09-19T07:27:43;2.50;;;1.00;;
21301;SDS011;10810;48.270;9.996;2023-09-19T07:30:10;1.57;;;0.97;;
21301;SDS011;10810;48.270;9.996;2023-09-19T07:32:38;2.17;;;0.90;;
21301;SDS011;10810;48.270;9.996;2023-09-19T07:35:06;1.55;;;0.80;;
21301;SDS011;10810;48.270;9.996;2023-09-19T07:37:34;1.47;;;0.90;;
21301;SDS011;10810;48.270;9.996;2023-09-19T07:40:01;2.00;;;0.97;;
21301;SDS011;10810;48.270;9.996;2023-09-19T07:42:32;1.37;;;0.93;;
21301;SDS011;10810;48.270;9.996;2023-09-19T07:45:00;1.77;;;1.00;;
21301;SDS011;10810;48.270;9.996;2023-09-19T07:47:27;2.53;;;0.97;;
21301;SDS011;10810;48.270;9.996;2023-09-19T07:49:55;4.70;;;1.10;;
21301;SDS011;10810;48.270;9.996;2023-09-19T07:52:22;1.57;;;0.97;;
21301;SDS011;10810;48.270;9.996;2023-09-19T07:54:51;2.63;;;0.93;;
21301;SDS011;10810;48.270;9.996;2023-09-19T07:57:18;2.43;;;1.00;;
21301;SDS011;10810;48.270;9.996;2023-09-19T07:59:45;2.03;;;0.90;;
21301;SDS011;10810;48.270;9.996;2023-09-19T08:02:12;2.70;;;0.90;;
21301;SDS011;10810;48.270;9.996;2023-09-19T08:04:41;2.17;;;0.97;;
21301;SDS011;10810;48.270;9.996;2023-09-19T08:07:08;2.20;;;1.00;;
21301;SDS011;10810;48.270;9.996;2023-09-19T08:09:36;1.00;;;0.80;;
21301;SDS011;10810;48.270;9.996;2023-09-19T08:12:05;2.77;;;0.90;;
21301;SDS011;10810;48.270;9.996;2023-09-19T08:14:33;2.83;;;1.00;;
21301;SDS011;10810;48.270;9.996;2023-09-19T08:17:00;1.20;;;0.90;;
21301;SDS011;10810;48.270;9.996;2023-09-19T08:19:27;1.87;;;0.80;;
21301;SDS011;10810;48.270;9.996;2023-09-19T08:21:56;1.93;;;1.00;;
21301;SDS011;10810;48.270;9.996;2023-09-19T08:24:24;2.17;;;0.90;;
21301;SDS011;10810;48.270;9.996;2023-09-19T08:26:53;2.33;;;0.90;;
21301;SDS011;10810;48.270;9.996;2023-09-19T08:29:22;1.73;;;1.00;;
21301;SDS011;10810;48.270;9.996;2023-09-19T08:31:53;2.47;;;1.03;;
21301;SDS011;10810;48.270;9.996;2023-09-19T08:34:21;1.57;;;0.90;;
21301;SDS011;10810;48.270;9.996;2023-09-19T08:36:49;2.37;;;1.07;;
21301;SDS011;10810;48.270;9.996;2023-09-19T08:39:17;1.77;;;1.00;;
21301;SDS011;10810;48.270;9.996;2023-09-19T08:41:45;1.67;;;0.87;;
21301;SDS011;10810;48.270;9.996;2023-09-19T08:44:12;2.23;;;0.93;;
21301;SDS011;10810;48.270;9.996;2023-09-19T08:46:41;2.20;;;1.10;;
21301;SDS011;10810;48.270;9.996;2023-09-19T08:49:12;4.80;;;1.20;;
21301;SDS011;10810;48.270;9.996;2023-09-19T08:51:51;1.87;;;0.93;;
21301;SDS011;10810;48.270;9.996;2023-09-19T08:54:28;2.83;;;1.00;;
21301;SDS011;10810;48.270;9.996;2023-09-19T08:57:05;3.27;;;1.40;;
21301;SDS011;10810;48.270;9.996;2023-09-19T08:59:36;3.30;;;0.80;;
21301;SDS011;10810;48.270;9.996;2023-09-19T09:02:08;2.73;;;1.00;;
21301;SDS011;10810;48.270;9.996;2023-09-19T09:04:38;1.60;;;0.87;;
21301;SDS011;10810;48.270;9.996;2023-09-19T09:07:09;2.30;;;0.90;;
21301;SDS011;10810;48.270;9.996;2023-09-19T09:09:38;3.40;;;1.20;;
21301;SDS011;10810;48.270;9.996;2023-09-19T09:12:07;2.53;;;1.10;;
21301;SDS011;10810;48.270;9.996;2023-09-19T09:14:37;3.47;;;1.00;;
21301;SDS011;10810;48.270;9.996;2023-09-19T09:17:04;2.58;;;1.13;;
21301;SDS011;10810;48.270;9.996;2023-09-19T09:19:33;1.07;;;0.80;;
21301;SDS011;10810;48.270;9.996;2023-09-19T09:22:07;1.60;;;0.93;;
21301;SDS011;10810;48.270;9.996;2023-09-19T09:24:35;4.17;;;1.07;;
21301;SDS011;10810;48.270;9.996;2023-09-19T09:27:04;2.20;;;1.00;;
21301;SDS011;10810;48.270;9.996;2023-09-19T09:29:43;3.33;;;1.03;;
21301;SDS011;10810;48.270;9.996;2023-09-19T09:32:18;2.13;;;1.10;;
21301;SDS011;10810;48.270;9.996;2023-09-19T09:34:49;2.45;;;1.00;;
21301;SDS011;10810;48.270;9.996;2023-09-19T09:37:18;4.15;;;0.98;;
21301;SDS011;10810;48.270;9.996;2023-09-19T09:39:50;2.80;;;1.00;;
21301;SDS011;10810;48.270;9.996;2023-09-19T09:45:13;1.30;;;0.85;;
21301;SDS011;10810;48.270;9.996;2023-09-19T09:47:43;2.53;;;0.80;;
21301;SDS011;10810;48.270;9.996;2023-09-19T09:50:25;2.47;;;0.82;;
21301;SDS011;10810;48.270;9.996;2023-09-19T09:53:07;1.50;;;0.80;;
21301;SDS011;10810;48.270;9.996;2023-09-19T09:56:02;2.30;;;0.80;;
21301;SDS011;10810;48.270;9.996;2023-09-19T09:58:32;1.00;;;0.77;;
21301;SDS011;10810;48.270;9.996;2023-09-19T10:01:00;1.03;;;0.80;;
21301;SDS011;10810;48.270;9.996;2023-09-19T10:03:34;1.30;;;0.60;;
21301;SDS011;10810;48.270;9.996;2023-09-19T10:06:09;1.10;;;0.60;;
21301;SDS011;10810;48.270;9.996;2023-09-19T10:09:01;2.23;;;0.70;;
21301;SDS011;10810;48.270;9.996;2023-09-19T10:11:37;1.60;;;0.80;;
21301;SDS011;10810;48.270;9.996;2023-09-19T10:14:09;0.80;;;0.50;;
21301;SDS011;10810;48.270;9.996;2023-09-19T10:16:40;1.77;;;0.70;;
21301;SDS011;10810;48.270;9.996;2023-09-19T10:19:10;1.63;;;0.87;;
21301;SDS011;10810;48.270;9.996;2023-09-19T10:21:44;2.57;;;0.80;;
21301;SDS011;10810;48.270;9.996;2023-09-19T10:24:12;1.00;;;0.60;;
21301;SDS011;10810;48.270;9.996;2023-09-19T10:26:42;1.57;;;0.80;;
21301;SDS011;10810;48.270;9.996;2023-09-19T10:29:11;2.38;;;0.80;;
21301;SDS011;10810;48.270;9.996;2023-09-19T10:31:41;1.48;;;0.70;;
21301;SDS011;10810;48.270;9.996;2023-09-19T10:34:12;1.48;;;0.80;;
21301;SDS011;10810;48.270;9.996;2023-09-19T10:36:44;0.88;;;0.60;;
21301;SDS011;10810;48.270;9.996;2023-09-19T10:39:13;2.17;;;0.70;;
21301;SDS011;10810;48.270;9.996;2023-09-19T10:41:45;0.82;;;0.60;;
21301;SDS011;10810;48.270;9.996;2023-09-19T10:44:22;1.48;;;0.80;;
21301;SDS011;10810;48.270;9.996;2023-09-19T10:46:51;2.75;;;0.75;;
21301;SDS011;10810;48.270;9.996;2023-09-19T10:49:19;1.23;;;0.75;;
21301;SDS011;10810;48.270;9.996;2023-09-19T10:51:49;1.85;;;1.00;;
21301;SDS011;10810;48.270;9.996;2023-09-19T10:54:22;2.50;;;1.80;;
21301;SDS011;10810;48.270;9.996;2023-09-19T10:56:52;1.58;;;0.82;;
21301;SDS011;10810;48.270;9.996;2023-09-19T10:59:23;1.92;;;0.90;;
21301;SDS011;10810;48.270;9.996;2023-09-19T11:01:59;2.42;;;1.00;;
21301;SDS011;10810;48.270;9.996;2023-09-19T11:04:42;1.20;;;0.90;;
21301;SDS011;10810;48.270;9.996;2023-09-19T11:07:14;2.22;;;1.00;;
21301;SDS011;10810;48.270;9.996;2023-09-19T11:09:48;1.25;;;0.88;;
21301;SDS011;10810;48.270;9.996;2023-09-19T11:21:39;1.67;;;0.75;;
21301;SDS011;10810;48.270;9.996;2023-09-19T11:27:10;2.05;;;0.82;;
21301;SDS011;10810;48.270;9.996;2023-09-19T11:29:39;0.98;;;0.77;;
21301;SDS011;10810;48.270;9.996;2023-09-19T11:32:06;1.00;;;0.80;;
21301;SDS011;10810;48.270;9.996;2023-09-19T11:34:44;3.45;;;0.90;;
21301;SDS011;10810;48.270;9.996;2023-09-19T11:40:37;1.90;;;1.00;;
21301;SDS011;10810;48.270;9.996;2023-09-19T11:46:05;1.33;;;0.82;;
21301;SDS011;10810;48.270;9.996;2023-09-19T11:48:33;1.70;;;0.90;;
21301;SDS011;10810;48.270;9.996;2023-09-19T11:51:10;2.50;;;0.98;;
21301;SDS011;10810;48.270;9.996;2023-09-19T11:53:44;1.95;;;0.80;;
21301;SDS011;10810;48.270;9.996;2023-09-19T11:56:14;3.30;;;0.90;;
21301;SDS011;10810;48.270;9.996;2023-09-19T11:58:43;1.88;;;1.00;;
21301;SDS011;10810;48.270;9.996;2023-09-19T12:01:12;1.10;;;0.80;;
21301;SDS011;10810;48.270;9.996;2023-09-19T12:03:46;1.23;;;0.80;;
21301;SDS011;10810;48.270;9.996;2023-09-19T12:06:15;2.38;;;1.00;;
21301;SDS011;10810;48.270;9.996;2023-09-19T12:08:43;1.20;;;0.80;;
21301;SDS011;10810;48.270;9.996;2023-09-19T12:11:12;2.40;;;0.90;;
21301;SDS011;10810;48.270;9.996;2023-09-19T12:13:42;1.75;;;0.90;;
21301;SDS011;10810;48.270;9.996;2023-09-19T12:16:14;2.75;;;1.00;;
21301;SDS011;10810;48.270;9.996;2023-09-19T12:18:42;1.73;;;0.90;;
21301;SDS011;10810;48.270;9.996;2023-09-19T12:21:24;1.38;;;0.90;;
21301;SDS011;10810;48.270;9.996;2023-09-19T12:24:04;1.85;;;0.90;;
21301;SDS011;10810;48.270;9.996;2023-09-19T12:26:39;1.90;;;1.00;;
21301;SDS011;10810;48.270;9.996;2023-09-19T12:29:17;2.50;;;0.95;;
21301;SDS011;10810;48.270;9.996;2023-09-19T12:31:51;2.58;;;1.00;;
21301;SDS011;10810;48.270;9.996;2023-09-19T12:34:22;1.30;;;0.80;;
21301;SDS011;10810;48.270;9.996;2023-09-19T12:37:08;1.52;;;0.90;;
21301;SDS011;10810;48.270;9.996;2023-09-19T12:39:41;0.88;;;0.70;;
21301;SDS011;10810;48.270;9.996;2023-09-19T12:42:15;1.50;;;0.90;;
21301;SDS011;10810;48.270;9.996;2023-09-19T12:44:44;1.80;;;1.02;;
21301;SDS011;10810;48.270;9.996;2023-09-19T12:47:12;2.40;;;1.20;;
21301;SDS011;10810;48.270;9.996;2023-09-19T12:52:38;1.38;;;0.90;;
21301;SDS011;10810;48.270;9.996;2023-09-19T12:55:06;1.42;;;0.90;;
21301;SDS011;10810;48.270;9.996;2023-09-19T12:57:37;1.63;;;0.90;;
21301;SDS011;10810;48.270;9.996;2023-09-19T13:00:04;3.10;;;0.90;;
21301;SDS011;10810;48.270;9.996;2023-09-19T13:02:36;1.95;;;0.90;;
21301;SDS011;10810;48.270;9.996;2023-09-19T13:05:03;2.35;;;0.95;;
21301;SDS011;10810;48.270;9.996;2023-09-19T13:07:41;1.92;;;1.00;;
21301;SDS011;10810;48.270;9.996;2023-09-19T13:10:14;2.30;;;0.88;;
21301;SDS011;10810;48.270;9.996;2023-09-19T13:12:43;2.67;;;0.90;;
21301;SDS011;10810;48.270;9.996;2023-09-19T13:15:12;1.25;;;0.70;;
21301;SDS011;10810;48.270;9.996;2023-09-19T13:17:44;2.00;;;0.73;;
21301;SDS011;10810;48.270;9.996;2023-09-19T13:20:22;1.05;;;0.75;;
21301;SDS011;10810;48.270;9.996;2023-09-19T13:22:54;3.38;;;0.90;;
21301;SDS011;10810;48.270;9.996;2023-09-19T13:25:25;1.40;;;0.70;;
21301;SDS011;10810;48.270;9.996;2023-09-19T13:27:56;3.03;;;0.90;;
21301;SDS011;10810;48.270;9.996;2023-09-19T13:30:25;1.77;;;0.90;;
21301;SDS011;10810;48.270;9.996;2023-09-19T13:33:04;2.50;;;0.90;;
21301;SDS011;10810;48.270;9.996;2023-09-19T13:35:32;2.60;;;0.90;;
21301;SDS011;10810;48.270;9.996;2023-09-19T13:37:59;1.40;;;0.80;;
21301;SDS011;10810;48.270;9.996;2023-09-19T13:40:26;2.80;;;0.80;;
21301;SDS011;10810;48.270;9.996;2023-09-19T13:42:57;1.08;;;0.80;;
21301;SDS011;10810;48.270;9.996;2023-09-19T13:45:24;2.83;;;0.70;;
21301;SDS011;10810;48.270;9.996;2023-09-19T13:47:52;1.10;;;0.70;;
21301;SDS011;10810;48.270;9.996;2023-09-19T13:50:20;1.30;;;0.70;;
21301;SDS011;10810;48.270;9.996;2023-09-19T13:52:49;2.83;;;0.93;;
21301;SDS011;10810;48.270;9.996;2023-09-19T13:55:16;1.50;;;0.93;;
21301;SDS011;10810;48.270;9.996;2023-09-19T13:57:45;0.93;;;0.80;;
21301;SDS011;10810;48.270;9.996;2023-09-19T14:00:16;1.52;;;0.90;;
21301;SDS011;10810;48.270;9.996;2023-09-19T14:02:43;1.67;;;0.80;;
21301;SDS011;10810;48.270;9.996;2023-09-19T14:05:11;1.52;;;0.88;;
21301;SDS011;10810;48.270;9.996;2023-09-19T14:07:40;1.30;;;0.80;;
21301;SDS011;10810;48.270;9.996;2023-09-19T14:10:07;2.15;;;0.90;;
21301;SDS011;10810;48.270;9.996;2023-09-19T14:12:36;3.38;;;1.00;;
21301;SDS011;10810;48.270;9.996;2023-09-19T14:15:03;1.85;;;0.90;;
21301;SDS011;10810;48.270;9.996;2023-09-19T14:17:32;2.28;;;0.80;;
21301;SDS011;10810;48.270;9.996;2023-09-19T14:19:59;2.55;;;1.10;;
21301;SDS011;10810;48.270;9.996;2023-09-19T14:22:26;2.88;;;0.90;;
21301;SDS011;10810;48.270;9.996;2023-09-19T14:24:53;2.25;;;0.95;;
21301;SDS011;10810;48.270;9.996;2023-09-19T14:27:20;1.20;;;0.80;;
21301;SDS011;10810;48.270;9.996;2023-09-19T14:29:47;1.80;;;0.93;;
21301;SDS011;10810;48.270;9.996;2023-09-19T14:32:14;1.38;;;0.80;;
21301;SDS011;10810;48.270;9.996;2023-09-19T14:34:42;2.25;;;0.88;;
21301;SDS011;10810;48.270;9.996;2023-09-19T14:37:09;1.17;;;0.90;;
21301;SDS011;10810;48.270;9.996;2023-09-19T14:39:36;1.98;;;1.00;;
21301;SDS011;10810;48.270;9.996;2023-09-19T14:42:04;2.72;;;0.90;;
21301;SDS011;10810;48.270;9.996;2023-09-19T14:44:31;1.67;;;1.00;;
21301;SDS011;10810;48.270;9.996;2023-09-19T14:47:00;1.45;;;0.82;;
21301;SDS011;10810;48.270;9.996;2023-09-19T14:49:27;1.45;;;0.88;;
21301;SDS011;10810;48.270;9.996;2023-09-19T14:51:55;3.65;;;1.00;;
21301;SDS011;10810;48.270;9.996;2023-09-19T14:54:22;1.85;;;0.88;;
21301;SDS011;10810;48.270;9.996;2023-09-19T14:56:50;1.48;;;0.90;;
21301;SDS011;10810;48.270;9.996;2023-09-19T14:59:29;1.55;;;0.93;;
21301;SDS011;10810;48.270;9.996;2023-09-19T15:01:56;2.30;;;0.80;;
21301;SDS011;10810;48.270;9.996;2023-09-19T15:04:23;2.08;;;0.80;;
21301;SDS011;10810;48.270;9.996;2023-09-19T15:06:50;1.30;;;0.90;;
21301;SDS011;10810;48.270;9.996;2023-09-19T15:09:21;1.70;;;0.85;;
21301;SDS011;10810;48.270;9.996;2023-09-19T15:11:51;2.42;;;0.85;;
21301;SDS011;10810;48.270;9.996;2023-09-19T15:14:18;1.52;;;0.93;;
21301;SDS011;10810;48.270;9.996;2023-09-19T15:16:46;3.25;;;1.05;;
21301;SDS011;10810;48.270;9.996;2023-09-19T15:19:13;0.98;;;0.70;;
21301;SDS011;10810;48.270;9.996;2023-09-19T15:21:40;1.20;;;0.80;;
21301;SDS011;10810;48.270;9.996;2023-09-19T15:24:07;1.58;;;1.00;;
21301;SDS011;10810;48.270;9.996;2023-09-19T15:26:36;3.75;;;0.95;;
21301;SDS011;10810;48.270;9.996;2023-09-19T15:29:04;3.20;;;1.08;;
21301;SDS011;10810;48.270;9.996;2023-09-19T15:31:32;2.35;;;0.80;;
21301;SDS011;10810;48.270;9.996;2023-09-19T15:34:01;3.75;;;0.88;;
21301;SDS011;10810;48.270;9.996;2023-09-19T15:36:28;1.98;;;0.85;;